Watkins Glen, New York
Current Conditions -  °F | °C
As of 5:53 AM on Sunday 23 Nov 2014 (Local Time) from KELM Reporting Station
Overcast Overcast  
Wind Chill:   Ceiling: 3300
Heat Index:   Visibility: 10mi
Dew Point:   Wind: 5mph
Humidity: 80%   Direction: 230°SW
Pressure: 30.07"   Gusts: NA
Location:  42.38°N, 76.87°W
Report Text: KELM 231053Z AUTO 23004KT 10SM OVC033 06/03 A3007 RMK AO2 SLP189 T00610028
Loading
Personal Weather Stations






























Interactive Weather Map New forecast layout! Learn more

10-Day Weather Forecast

Advertisements
Track Severe Weather on mobile